sensor_id;sensor_type;location;lat;lon;timestamp;P1;durP1;ratioP1;P2;durP2;ratioP2
20557;SDS011;10437;48.156;11.530;2023-07-13T00:01:45;4.63;;;2.78;;
20557;SDS011;10437;48.156;11.530;2023-07-13T00:04:15;5.05;;;2.53;;
20557;SDS011;10437;48.156;11.530;2023-07-13T00:06:43;4.95;;;2.67;;
20557;SDS011;10437;48.156;11.530;2023-07-13T00:09:11;4.00;;;2.40;;
20557;SDS011;10437;48.156;11.530;2023-07-13T00:11:40;5.68;;;2.80;;
20557;SDS011;10437;48.156;11.530;2023-07-13T00:14:08;4.13;;;2.67;;
20557;SDS011;10437;48.156;11.530;2023-07-13T00:16:36;3.85;;;2.50;;
20557;SDS011;10437;48.156;11.530;2023-07-13T00:19:05;4.75;;;2.42;;
20557;SDS011;10437;48.156;11.530;2023-07-13T00:21:32;6.80;;;2.40;;
20557;SDS011;10437;48.156;11.530;2023-07-13T00:24:00;5.90;;;2.75;;
20557;SDS011;10437;48.156;11.530;2023-07-13T00:26:27;6.68;;;2.63;;
20557;SDS011;10437;48.156;11.530;2023-07-13T00:28:56;4.93;;;2.50;;
20557;SDS011;10437;48.156;11.530;2023-07-13T00:31:24;6.18;;;2.88;;
20557;SDS011;10437;48.156;11.530;2023-07-13T00:33:51;6.20;;;2.58;;
20557;SDS011;10437;48.156;11.530;2023-07-13T00:36:19;5.75;;;2.78;;
20557;SDS011;10437;48.156;11.530;2023-07-13T00:38:46;4.95;;;2.17;;
20557;SDS011;10437;48.156;11.530;2023-07-13T00:41:14;5.07;;;2.58;;
20557;SDS011;10437;48.156;11.530;2023-07-13T00:43:41;3.75;;;2.45;;
20557;SDS011;10437;48.156;11.530;2023-07-13T00:46:14;3.83;;;1.98;;
20557;SDS011;10437;48.156;11.530;2023-07-13T00:48:47;4.00;;;2.28;;
20557;SDS011;10437;48.156;11.530;2023-07-13T00:51:16;3.65;;;2.17;;
20557;SDS011;10437;48.156;11.530;2023-07-13T00:53:47;3.25;;;1.70;;
20557;SDS011;10437;48.156;11.530;2023-07-13T00:56:14;3.88;;;2.20;;
20557;SDS011;10437;48.156;11.530;2023-07-13T00:58:41;3.72;;;2.17;;
20557;SDS011;10437;48.156;11.530;2023-07-13T01:01:08;3.92;;;2.08;;
20557;SDS011;10437;48.156;11.530;2023-07-13T01:03:39;4.22;;;2.00;;
20557;SDS011;10437;48.156;11.530;2023-07-13T01:06:06;3.15;;;2.40;;
20557;SDS011;10437;48.156;11.530;2023-07-13T01:08:33;3.63;;;2.00;;
20557;SDS011;10437;48.156;11.530;2023-07-13T01:11:01;3.40;;;2.20;;
20557;SDS011;10437;48.156;11.530;2023-07-13T01:13:28;5.57;;;2.25;;
20557;SDS011;10437;48.156;11.530;2023-07-13T01:15:55;2.78;;;1.95;;
20557;SDS011;10437;48.156;11.530;2023-07-13T01:18:25;5.43;;;1.88;;
20557;SDS011;10437;48.156;11.530;2023-07-13T01:20:55;4.60;;;1.83;;
20557;SDS011;10437;48.156;11.530;2023-07-13T01:23:23;4.43;;;2.10;;
20557;SDS011;10437;48.156;11.530;2023-07-13T01:25:50;3.08;;;2.17;;
20557;SDS011;10437;48.156;11.530;2023-07-13T01:28:17;4.03;;;1.70;;
20557;SDS011;10437;48.156;11.530;2023-07-13T01:30:45;3.15;;;1.90;;
20557;SDS011;10437;48.156;11.530;2023-07-13T01:33:13;2.97;;;1.98;;
20557;SDS011;10437;48.156;11.530;2023-07-13T01:35:41;3.20;;;1.98;;
20557;SDS011;10437;48.156;11.530;2023-07-13T01:38:10;4.13;;;1.88;;
20557;SDS011;10437;48.156;11.530;2023-07-13T01:40:38;4.47;;;1.92;;
20557;SDS011;10437;48.156;11.530;2023-07-13T01:43:05;4.45;;;2.22;;
20557;SDS011;10437;48.156;11.530;2023-07-13T01:45:32;2.92;;;2.05;;
20557;SDS011;10437;48.156;11.530;2023-07-13T01:48:00;3.65;;;1.90;;
20557;SDS011;10437;48.156;11.530;2023-07-13T01:50:27;3.63;;;2.10;;
20557;SDS011;10437;48.156;11.530;2023-07-13T01:52:54;3.83;;;1.85;;
20557;SDS011;10437;48.156;11.530;2023-07-13T01:55:22;4.30;;;2.55;;
20557;SDS011;10437;48.156;11.530;2023-07-13T01:57:49;4.05;;;2.20;;
20557;SDS011;10437;48.156;11.530;2023-07-13T02:00:17;4.38;;;2.00;;
20557;SDS011;10437;48.156;11.530;2023-07-13T02:02:44;4.35;;;2.25;;
20557;SDS011;10437;48.156;11.530;2023-07-13T02:05:11;3.25;;;2.10;;
20557;SDS011;10437;48.156;11.530;2023-07-13T02:07:38;3.92;;;2.28;;
20557;SDS011;10437;48.156;11.530;2023-07-13T02:10:06;6.03;;;2.40;;
20557;SDS011;10437;48.156;11.530;2023-07-13T02:12:35;5.95;;;2.47;;
20557;SDS011;10437;48.156;11.530;2023-07-13T02:15:02;3.35;;;2.60;;
20557;SDS011;10437;48.156;11.530;2023-07-13T02:17:29;6.72;;;2.58;;
20557;SDS011;10437;48.156;11.530;2023-07-13T02:19:57;3.67;;;2.15;;
20557;SDS011;10437;48.156;11.530;2023-07-13T02:22:24;7.50;;;2.30;;
20557;SDS011;10437;48.156;11.530;2023-07-13T02:24:51;5.47;;;2.67;;
20557;SDS011;10437;48.156;11.530;2023-07-13T02:27:18;3.95;;;2.05;;
20557;SDS011;10437;48.156;11.530;2023-07-13T02:29:47;9.85;;;2.70;;
20557;SDS011;10437;48.156;11.530;2023-07-13T02:32:16;3.95;;;2.63;;
20557;SDS011;10437;48.156;11.530;2023-07-13T02:34:43;3.78;;;2.38;;
20557;SDS011;10437;48.156;11.530;2023-07-13T02:37:10;4.93;;;2.80;;
20557;SDS011;10437;48.156;11.530;2023-07-13T02:39:37;3.83;;;2.90;;
20557;SDS011;10437;48.156;11.530;2023-07-13T02:42:05;4.65;;;2.97;;
20557;SDS011;10437;48.156;11.530;2023-07-13T02:44:32;6.22;;;3.33;;
20557;SDS011;10437;48.156;11.530;2023-07-13T02:47:00;8.10;;;2.90;;
20557;SDS011;10437;48.156;11.530;2023-07-13T02:49:28;8.90;;;3.80;;
20557;SDS011;10437;48.156;11.530;2023-07-13T02:51:56;7.88;;;3.47;;
20557;SDS011;10437;48.156;11.530;2023-07-13T02:54:23;10.55;;;3.78;;
20557;SDS011;10437;48.156;11.530;2023-07-13T02:56:50;9.50;;;4.00;;
20557;SDS011;10437;48.156;11.530;2023-07-13T02:59:17;8.27;;;3.30;;
20557;SDS011;10437;48.156;11.530;2023-07-13T03:01:44;7.55;;;3.33;;
20557;SDS011;10437;48.156;11.530;2023-07-13T03:04:12;10.65;;;3.53;;
20557;SDS011;10437;48.156;11.530;2023-07-13T03:06:39;6.65;;;3.25;;
20557;SDS011;10437;48.156;11.530;2023-07-13T03:09:08;7.82;;;3.15;;
20557;SDS011;10437;48.156;11.530;2023-07-13T03:11:34;7.32;;;3.80;;
20557;SDS011;10437;48.156;11.530;2023-07-13T03:14:01;10.50;;;3.42;;
20557;SDS011;10437;48.156;11.530;2023-07-13T03:16:29;8.25;;;3.85;;
20557;SDS011;10437;48.156;11.530;2023-07-13T03:18:56;5.93;;;3.38;;
20557;SDS011;10437;48.156;11.530;2023-07-13T03:21:24;8.68;;;3.35;;
20557;SDS011;10437;48.156;11.530;2023-07-13T03:23:54;4.25;;;3.08;;
20557;SDS011;10437;48.156;11.530;2023-07-13T03:26:20;9.27;;;3.40;;
20557;SDS011;10437;48.156;11.530;2023-07-13T03:28:47;7.38;;;3.67;;
20557;SDS011;10437;48.156;11.530;2023-07-13T03:31:15;6.38;;;3.17;;
20557;SDS011;10437;48.156;11.530;2023-07-13T03:33:44;7.13;;;3.25;;
20557;SDS011;10437;48.156;11.530;2023-07-13T03:36:13;8.10;;;3.35;;
20557;SDS011;10437;48.156;11.530;2023-07-13T03:38:45;6.15;;;3.05;;
20557;SDS011;10437;48.156;11.530;2023-07-13T03:41:13;4.80;;;3.10;;
20557;SDS011;10437;48.156;11.530;2023-07-13T03:43:40;4.57;;;2.80;;
20557;SDS011;10437;48.156;11.530;2023-07-13T03:46:07;4.30;;;2.80;;
20557;SDS011;10437;48.156;11.530;2023-07-13T03:48:33;4.30;;;2.80;;
20557;SDS011;10437;48.156;11.530;2023-07-13T03:51:01;5.22;;;2.70;;
20557;SDS011;10437;48.156;11.530;2023-07-13T03:53:28;7.47;;;3.00;;
20557;SDS011;10437;48.156;11.530;2023-07-13T03:55:56;6.20;;;3.10;;
20557;SDS011;10437;48.156;11.530;2023-07-13T03:58:24;8.65;;;2.78;;
20557;SDS011;10437;48.156;11.530;2023-07-13T04:00:53;4.75;;;2.20;;
20557;SDS011;10437;48.156;11.530;2023-07-13T04:03:20;6.22;;;2.50;;
20557;SDS011;10437;48.156;11.530;2023-07-13T04:05:47;4.55;;;2.63;;
20557;SDS011;10437;48.156;11.530;2023-07-13T04:08:14;4.45;;;2.30;;
20557;SDS011;10437;48.156;11.530;2023-07-13T04:10:42;4.85;;;2.65;;
20557;SDS011;10437;48.156;11.530;2023-07-13T04:13:10;4.78;;;2.55;;
20557;SDS011;10437;48.156;11.530;2023-07-13T04:15:38;4.40;;;2.38;;
20557;SDS011;10437;48.156;11.530;2023-07-13T04:18:05;4.75;;;2.30;;
20557;SDS011;10437;48.156;11.530;2023-07-13T04:20:32;6.80;;;2.80;;
20557;SDS011;10437;48.156;11.530;2023-07-13T04:22:59;5.30;;;2.42;;
20557;SDS011;10437;48.156;11.530;2023-07-13T04:25:26;5.40;;;2.80;;
20557;SDS011;10437;48.156;11.530;2023-07-13T04:27:53;4.97;;;2.53;;
20557;SDS011;10437;48.156;11.530;2023-07-13T04:30:22;6.18;;;2.83;;
20557;SDS011;10437;48.156;11.530;2023-07-13T04:32:49;5.25;;;2.67;;
20557;SDS011;10437;48.156;11.530;2023-07-13T04:35:18;9.40;;;2.50;;
20557;SDS011;10437;48.156;11.530;2023-07-13T04:37:46;4.97;;;2.63;;
20557;SDS011;10437;48.156;11.530;2023-07-13T04:40:15;5.43;;;2.70;;
20557;SDS011;10437;48.156;11.530;2023-07-13T04:42:42;5.85;;;2.60;;
20557;SDS011;10437;48.156;11.530;2023-07-13T04:45:09;6.82;;;2.95;;
20557;SDS011;10437;48.156;11.530;2023-07-13T04:47:37;3.85;;;2.58;;
20557;SDS011;10437;48.156;11.530;2023-07-13T04:50:04;6.13;;;2.72;;
20557;SDS011;10437;48.156;11.530;2023-07-13T04:52:32;4.38;;;2.20;;
20557;SDS011;10437;48.156;11.530;2023-07-13T04:54:59;6.35;;;2.22;;
20557;SDS011;10437;48.156;11.530;2023-07-13T04:57:26;3.95;;;2.05;;
20557;SDS011;10437;48.156;11.530;2023-07-13T04:59:53;3.60;;;2.15;;
20557;SDS011;10437;48.156;11.530;2023-07-13T05:02:20;5.82;;;2.50;;
20557;SDS011;10437;48.156;11.530;2023-07-13T05:04:49;4.05;;;2.35;;
20557;SDS011;10437;48.156;11.530;2023-07-13T05:07:16;6.55;;;4.30;;
20557;SDS011;10437;48.156;11.530;2023-07-13T05:09:42;5.90;;;2.80;;
20557;SDS011;10437;48.156;11.530;2023-07-13T05:12:10;4.57;;;2.22;;
20557;SDS011;10437;48.156;11.530;2023-07-13T05:14:37;4.32;;;2.70;;
20557;SDS011;10437;48.156;11.530;2023-07-13T05:17:04;7.47;;;2.80;;
20557;SDS011;10437;48.156;11.530;2023-07-13T05:19:31;6.68;;;2.60;;
20557;SDS011;10437;48.156;11.530;2023-07-13T05:21:59;5.28;;;2.50;;
20557;SDS011;10437;48.156;11.530;2023-07-13T05:24:27;5.65;;;2.50;;
20557;SDS011;10437;48.156;11.530;2023-07-13T05:26:54;6.53;;;2.70;;
20557;SDS011;10437;48.156;11.530;2023-07-13T05:29:21;6.85;;;2.88;;
20557;SDS011;10437;48.156;11.530;2023-07-13T05:31:49;6.93;;;2.58;;
20557;SDS011;10437;48.156;11.530;2023-07-13T05:34:16;8.57;;;5.75;;
20557;SDS011;10437;48.156;11.530;2023-07-13T05:36:43;5.38;;;3.00;;
20557;SDS011;10437;48.156;11.530;2023-07-13T05:39:11;6.95;;;3.20;;
20557;SDS011;10437;48.156;11.530;2023-07-13T05:41:39;3.78;;;2.63;;
20557;SDS011;10437;48.156;11.530;2023-07-13T05:44:06;4.53;;;2.70;;
20557;SDS011;10437;48.156;11.530;2023-07-13T05:46:33;6.65;;;2.80;;
20557;SDS011;10437;48.156;11.530;2023-07-13T05:48:59;7.55;;;2.50;;
20557;SDS011;10437;48.156;11.530;2023-07-13T05:51:26;4.95;;;2.47;;
20557;SDS011;10437;48.156;11.530;2023-07-13T05:53:53;5.45;;;2.90;;
20557;SDS011;10437;48.156;11.530;2023-07-13T05:56:22;6.75;;;2.80;;
20557;SDS011;10437;48.156;11.530;2023-07-13T05:58:50;8.82;;;2.90;;
20557;SDS011;10437;48.156;11.530;2023-07-13T06:01:17;10.40;;;2.70;;
20557;SDS011;10437;48.156;11.530;2023-07-13T06:03:45;4.80;;;2.60;;
20557;SDS011;10437;48.156;11.530;2023-07-13T06:06:12;7.38;;;3.00;;
20557;SDS011;10437;48.156;11.530;2023-07-13T06:08:39;4.95;;;2.85;;
20557;SDS011;10437;48.156;11.530;2023-07-13T06:11:07;4.82;;;2.67;;
20557;SDS011;10437;48.156;11.530;2023-07-13T06:13:40;6.40;;;2.63;;
20557;SDS011;10437;48.156;11.530;2023-07-13T06:16:06;4.68;;;2.33;;
20557;SDS011;10437;48.156;11.530;2023-07-13T06:18:34;5.75;;;2.90;;
20557;SDS011;10437;48.156;11.530;2023-07-13T06:21:05;6.63;;;2.70;;
20557;SDS011;10437;48.156;11.530;2023-07-13T06:23:32;7.85;;;2.42;;
20557;SDS011;10437;48.156;11.530;2023-07-13T06:26:00;7.18;;;2.63;;
20557;SDS011;10437;48.156;11.530;2023-07-13T06:28:28;8.40;;;2.70;;
20557;SDS011;10437;48.156;11.530;2023-07-13T06:30:56;3.75;;;2.05;;
20557;SDS011;10437;48.156;11.530;2023-07-13T06:33:23;5.43;;;2.22;;
20557;SDS011;10437;48.156;11.530;2023-07-13T06:35:50;6.25;;;2.30;;
20557;SDS011;10437;48.156;11.530;2023-07-13T06:38:17;7.55;;;2.30;;
20557;SDS011;10437;48.156;11.530;2023-07-13T06:40:44;6.80;;;2.53;;
20557;SDS011;10437;48.156;11.530;2023-07-13T06:43:11;5.22;;;2.10;;
20557;SDS011;10437;48.156;11.530;2023-07-13T06:45:40;5.25;;;2.50;;
20557;SDS011;10437;48.156;11.530;2023-07-13T06:48:09;3.67;;;2.22;;
20557;SDS011;10437;48.156;11.530;2023-07-13T06:53:04;5.20;;;2.13;;
20557;SDS011;10437;48.156;11.530;2023-07-13T06:55:31;6.80;;;2.30;;
20557;SDS011;10437;48.156;11.530;2023-07-13T06:57:58;4.05;;;1.98;;
20557;SDS011;10437;48.156;11.530;2023-07-13T07:00:25;3.92;;;2.25;;
20557;SDS011;10437;48.156;11.530;2023-07-13T07:02:52;5.38;;;2.50;;
20557;SDS011;10437;48.156;11.530;2023-07-13T07:05:21;5.28;;;2.10;;
20557;SDS011;10437;48.156;11.530;2023-07-13T07:07:47;6.35;;;2.92;;
20557;SDS011;10437;48.156;11.530;2023-07-13T07:10:15;8.35;;;2.33;;
20557;SDS011;10437;48.156;11.530;2023-07-13T07:12:42;5.30;;;2.40;;
20557;SDS011;10437;48.156;11.530;2023-07-13T07:15:10;4.70;;;1.80;;
20557;SDS011;10437;48.156;11.530;2023-07-13T07:17:37;2.95;;;1.95;;
20557;SDS011;10437;48.156;11.530;2023-07-13T07:20:04;6.70;;;2.50;;
20557;SDS011;10437;48.156;11.530;2023-07-13T07:22:34;5.57;;;2.13;;
20557;SDS011;10437;48.156;11.530;2023-07-13T07:25:00;5.93;;;2.15;;
20557;SDS011;10437;48.156;11.530;2023-07-13T07:27:27;8.93;;;2.30;;
20557;SDS011;10437;48.156;11.530;2023-07-13T07:29:55;5.15;;;2.25;;
20557;SDS011;10437;48.156;11.530;2023-07-13T07:32:22;4.53;;;2.30;;
20557;SDS011;10437;48.156;11.530;2023-07-13T07:34:49;7.93;;;2.10;;
20557;SDS011;10437;48.156;11.530;2023-07-13T07:37:16;10.07;;;2.30;;
20557;SDS011;10437;48.156;11.530;2023-07-13T07:39:44;3.92;;;1.88;;
20557;SDS011;10437;48.156;11.530;2023-07-13T07:42:11;5.47;;;2.05;;
20557;SDS011;10437;48.156;11.530;2023-07-13T07:44:39;5.05;;;2.17;;
20557;SDS011;10437;48.156;11.530;2023-07-13T07:47:06;4.43;;;2.75;;
20557;SDS011;10437;48.156;11.530;2023-07-13T07:49:33;5.13;;;2.30;;
20557;SDS011;10437;48.156;11.530;2023-07-13T07:52:00;3.90;;;2.20;;
20557;SDS011;10437;48.156;11.530;2023-07-13T07:54:27;4.07;;;2.10;;
20557;SDS011;10437;48.156;11.530;2023-07-13T07:56:55;5.57;;;2.38;;
20557;SDS011;10437;48.156;11.530;2023-07-13T07:59:22;6.05;;;2.17;;
20557;SDS011;10437;48.156;11.530;2023-07-13T08:01:49;3.55;;;1.85;;
20557;SDS011;10437;48.156;11.530;2023-07-13T08:04:16;4.72;;;1.90;;
20557;SDS011;10437;48.156;11.530;2023-07-13T08:06:43;8.02;;;2.03;;
20557;SDS011;10437;48.156;11.530;2023-07-13T08:09:09;6.28;;;1.90;;
20557;SDS011;10437;48.156;11.530;2023-07-13T08:11:37;6.60;;;2.42;;
20557;SDS011;10437;48.156;11.530;2023-07-13T08:14:05;8.95;;;2.25;;
20557;SDS011;10437;48.156;11.530;2023-07-13T08:16:32;6.55;;;2.25;;
20557;SDS011;10437;48.156;11.530;2023-07-13T08:18:59;8.07;;;2.20;;
20557;SDS011;10437;48.156;11.530;2023-07-13T08:21:26;6.28;;;2.15;;
20557;SDS011;10437;48.156;11.530;2023-07-13T08:23:53;4.75;;;2.28;;
20557;SDS011;10437;48.156;11.530;2023-07-13T08:26:21;5.40;;;2.30;;
20557;SDS011;10437;48.156;11.530;2023-07-13T08:28:47;6.20;;;2.47;;
20557;SDS011;10437;48.156;11.530;2023-07-13T08:31:16;7.22;;;2.15;;
20557;SDS011;10437;48.156;11.530;2023-07-13T08:33:43;5.53;;;2.00;;
20557;SDS011;10437;48.156;11.530;2023-07-13T08:36:10;6.07;;;2.17;;
20557;SDS011;10437;48.156;11.530;2023-07-13T08:38:37;8.25;;;1.92;;
20557;SDS011;10437;48.156;11.530;2023-07-13T08:41:09;3.72;;;1.95;;
20557;SDS011;10437;48.156;11.530;2023-07-13T08:43:38;3.20;;;2.00;;
20557;SDS011;10437;48.156;11.530;2023-07-13T08:46:08;7.20;;;2.13;;
20557;SDS011;10437;48.156;11.530;2023-07-13T08:48:41;4.45;;;2.15;;
20557;SDS011;10437;48.156;11.530;2023-07-13T08:51:16;3.10;;;1.63;;
20557;SDS011;10437;48.156;11.530;2023-07-13T08:53:52;4.50;;;2.00;;
20557;SDS011;10437;48.156;11.530;2023-07-13T08:56:24;4.70;;;1.67;;
20557;SDS011;10437;48.156;11.530;2023-07-13T08:58:55;7.45;;;1.40;;
20557;SDS011;10437;48.156;11.530;2023-07-13T09:01:24;4.03;;;1.40;;
20557;SDS011;10437;48.156;11.530;2023-07-13T09:03:59;5.50;;;1.73;;
20557;SDS011;10437;48.156;11.530;2023-07-13T09:06:31;4.38;;;1.33;;
20557;SDS011;10437;48.156;11.530;2023-07-13T09:09:08;6.18;;;1.70;;
20557;SDS011;10437;48.156;11.530;2023-07-13T09:11:45;3.67;;;1.60;;
20557;SDS011;10437;48.156;11.530;2023-07-13T09:14:26;4.78;;;1.77;;
20557;SDS011;10437;48.156;11.530;2023-07-13T09:17:11;3.22;;;1.40;;
20557;SDS011;10437;48.156;11.530;2023-07-13T09:19:43;4.18;;;1.58;;
20557;SDS011;10437;48.156;11.530;2023-07-13T09:22:15;6.43;;;1.90;;
20557;SDS011;10437;48.156;11.530;2023-07-13T09:24:50;3.72;;;1.65;;
20557;SDS011;10437;48.156;11.530;2023-07-13T09:27:22;1.70;;;1.38;;
20557;SDS011;10437;48.156;11.530;2023-07-13T09:29:56;3.63;;;1.33;;
20557;SDS011;10437;48.156;11.530;2023-07-13T09:32:28;6.13;;;1.58;;
20557;SDS011;10437;48.156;11.530;2023-07-13T09:34:57;4.60;;;1.77;;
20557;SDS011;10437;48.156;11.530;2023-07-13T09:37:27;3.00;;;1.30;;
20557;SDS011;10437;48.156;11.530;2023-07-13T09:39:57;7.18;;;1.40;;
20557;SDS011;10437;48.156;11.530;2023-07-13T09:42:25;2.25;;;1.40;;
20557;SDS011;10437;48.156;11.530;2023-07-13T09:44:54;3.17;;;1.20;;
20557;SDS011;10437;48.156;11.530;2023-07-13T09:47:22;4.63;;;1.30;;
20557;SDS011;10437;48.156;11.530;2023-07-13T09:49:54;3.63;;;1.92;;
20557;SDS011;10437;48.156;11.530;2023-07-13T09:52:25;4.03;;;1.50;;
20557;SDS011;10437;48.156;11.530;2023-07-13T09:54:53;7.10;;;1.40;;
20557;SDS011;10437;48.156;11.530;2023-07-13T09:57:24;4.90;;;1.70;;
20557;SDS011;10437;48.156;11.530;2023-07-13T09:59:53;5.10;;;1.30;;
20557;SDS011;10437;48.156;11.530;2023-07-13T10:02:24;2.58;;;1.33;;
20557;SDS011;10437;48.156;11.530;2023-07-13T10:04:58;5.10;;;1.55;;
20557;SDS011;10437;48.156;11.530;2023-07-13T10:07:28;8.07;;;1.52;;
20557;SDS011;10437;48.156;11.530;2023-07-13T10:09:56;4.10;;;1.52;;
20557;SDS011;10437;48.156;11.530;2023-07-13T10:12:26;3.33;;;1.30;;
20557;SDS011;10437;48.156;11.530;2023-07-13T10:14:54;5.85;;;1.20;;
20557;SDS011;10437;48.156;11.530;2023-07-13T10:17:25;8.60;;;1.40;;
20557;SDS011;10437;48.156;11.530;2023-07-13T10:19:58;4.45;;;1.15;;
20557;SDS011;10437;48.156;11.530;2023-07-13T10:22:29;7.45;;;1.55;;
20557;SDS011;10437;48.156;11.530;2023-07-13T10:25:04;4.88;;;1.58;;
20557;SDS011;10437;48.156;11.530;2023-07-13T10:27:41;10.93;;;1.63;;
20557;SDS011;10437;48.156;11.530;2023-07-13T10:30:12;4.00;;;1.42;;
20557;SDS011;10437;48.156;11.530;2023-07-13T10:32:41;3.13;;;1.50;;
20557;SDS011;10437;48.156;11.530;2023-07-13T10:35:10;6.07;;;2.15;;
20557;SDS011;10437;48.156;11.530;2023-07-13T10:37:42;4.68;;;1.38;;
20557;SDS011;10437;48.156;11.530;2023-07-13T10:40:16;5.82;;;1.90;;
20557;SDS011;10437;48.156;11.530;2023-07-13T10:42:48;4.90;;;1.45;;
20557;SDS011;10437;48.156;11.530;2023-07-13T10:45:19;8.13;;;1.80;;
20557;SDS011;10437;48.156;11.530;2023-07-13T10:47:48;4.60;;;1.38;;
20557;SDS011;10437;48.156;11.530;2023-07-13T10:50:19;9.93;;;2.28;;
20557;SDS011;10437;48.156;11.530;2023-07-13T10:52:48;4.30;;;1.67;;
20557;SDS011;10437;48.156;11.530;2023-07-13T10:55:31;2.80;;;1.48;;
20557;SDS011;10437;48.156;11.530;2023-07-13T10:58:11;5.72;;;1.40;;
20557;SDS011;10437;48.156;11.530;2023-07-13T11:00:43;3.58;;;1.50;;
20557;SDS011;10437;48.156;11.530;2023-07-13T11:03:15;5.60;;;1.60;;
20557;SDS011;10437;48.156;11.530;2023-07-13T11:05:48;5.82;;;1.52;;
20557;SDS011;10437;48.156;11.530;2023-07-13T11:08:19;3.53;;;1.30;;
20557;SDS011;10437;48.156;11.530;2023-07-13T11:10:49;3.15;;;1.40;;
20557;SDS011;10437;48.156;11.530;2023-07-13T11:13:35;5.28;;;1.60;;
20557;SDS011;10437;48.156;11.530;2023-07-13T11:16:12;4.35;;;1.63;;
20557;SDS011;10437;48.156;11.530;2023-07-13T11:18:39;4.65;;;1.52;;
20557;SDS011;10437;48.156;11.530;2023-07-13T11:21:13;3.28;;;1.20;;
20557;SDS011;10437;48.156;11.530;2023-07-13T11:23:42;5.10;;;1.42;;
20557;SDS011;10437;48.156;11.530;2023-07-13T11:29:07;5.22;;;1.40;;
20557;SDS011;10437;48.156;11.530;2023-07-13T11:31:36;4.28;;;1.40;;
20557;SDS011;10437;48.156;11.530;2023-07-13T11:34:06;3.85;;;1.27;;
20557;SDS011;10437;48.156;11.530;2023-07-13T11:36:43;5.72;;;1.42;;
20557;SDS011;10437;48.156;11.530;2023-07-13T11:39:16;3.35;;;1.45;;
20557;SDS011;10437;48.156;11.530;2023-07-13T11:41:48;4.40;;;1.85;;
20557;SDS011;10437;48.156;11.530;2023-07-13T11:44:18;3.95;;;1.02;;
20557;SDS011;10437;48.156;11.530;2023-07-13T11:46:47;2.17;;;1.20;;
20557;SDS011;10437;48.156;11.530;2023-07-13T11:49:16;3.20;;;1.33;;
20557;SDS011;10437;48.156;11.530;2023-07-13T11:51:45;5.32;;;1.20;;
20557;SDS011;10437;48.156;11.530;2023-07-13T11:54:19;4.50;;;1.70;;
20557;SDS011;10437;48.156;11.530;2023-07-13T11:56:52;3.75;;;1.30;;
20557;SDS011;10437;48.156;11.530;2023-07-13T11:59:22;3.97;;;1.30;;
20557;SDS011;10437;48.156;11.530;2023-07-13T12:01:50;2.70;;;1.13;;
20557;SDS011;10437;48.156;11.530;2023-07-13T12:04:20;4.75;;;1.50;;
20557;SDS011;10437;48.156;11.530;2023-07-13T12:06:57;2.47;;;1.13;;
20557;SDS011;10437;48.156;11.530;2023-07-13T12:09:30;2.97;;;1.30;;
20557;SDS011;10437;48.156;11.530;2023-07-13T12:11:57;3.53;;;1.10;;
20557;SDS011;10437;48.156;11.530;2023-07-13T12:14:26;3.88;;;1.10;;
20557;SDS011;10437;48.156;11.530;2023-07-13T12:16:53;5.88;;;1.77;;
20557;SDS011;10437;48.156;11.530;2023-07-13T12:19:22;5.18;;;1.42;;
20557;SDS011;10437;48.156;11.530;2023-07-13T12:21:52;5.07;;;1.40;;
20557;SDS011;10437;48.156;11.530;2023-07-13T12:24:23;2.40;;;1.30;;
20557;SDS011;10437;48.156;11.530;2023-07-13T12:26:51;5.10;;;1.35;;
20557;SDS011;10437;48.156;11.530;2023-07-13T12:29:18;6.55;;;1.45;;
20557;SDS011;10437;48.156;11.530;2023-07-13T12:31:48;2.45;;;1.20;;
20557;SDS011;10437;48.156;11.530;2023-07-13T12:34:18;2.92;;;1.60;;
20557;SDS011;10437;48.156;11.530;2023-07-13T12:36:47;3.42;;;1.13;;
20557;SDS011;10437;48.156;11.530;2023-07-13T12:39:16;4.50;;;1.23;;
20557;SDS011;10437;48.156;11.530;2023-07-13T12:41:47;6.55;;;1.50;;
20557;SDS011;10437;48.156;11.530;2023-07-13T12:44:16;7.38;;;1.50;;
20557;SDS011;10437;48.156;11.530;2023-07-13T12:46:51;3.75;;;1.60;;
20557;SDS011;10437;48.156;11.530;2023-07-13T12:51:50;5.60;;;1.58;;
20557;SDS011;10437;48.156;11.530;2023-07-13T12:54:22;8.10;;;1.77;;
20557;SDS011;10437;48.156;11.530;2023-07-13T12:56:51;3.42;;;1.40;;
20557;SDS011;10437;48.156;11.530;2023-07-13T12:59:21;3.08;;;1.33;;
20557;SDS011;10437;48.156;11.530;2023-07-13T13:01:51;4.85;;;1.58;;
20557;SDS011;10437;48.156;11.530;2023-07-13T13:04:19;9.20;;;1.50;;
20557;SDS011;10437;48.156;11.530;2023-07-13T13:06:47;5.93;;;1.17;;
20557;SDS011;10437;48.156;11.530;2023-07-13T13:09:15;5.30;;;1.30;;
20557;SDS011;10437;48.156;11.530;2023-07-13T13:11:43;6.57;;;1.25;;
20557;SDS011;10437;48.156;11.530;2023-07-13T13:14:11;4.60;;;1.40;;
20557;SDS011;10437;48.156;11.530;2023-07-13T13:16:46;1.85;;;1.10;;
20557;SDS011;10437;48.156;11.530;2023-07-13T13:19:16;4.68;;;1.17;;
20557;SDS011;10437;48.156;11.530;2023-07-13T13:21:46;1.55;;;1.05;;
20557;SDS011;10437;48.156;11.530;2023-07-13T13:24:16;1.88;;;1.10;;
20557;SDS011;10437;48.156;11.530;2023-07-13T13:26:45;3.28;;;1.38;;
20557;SDS011;10437;48.156;11.530;2023-07-13T13:29:15;4.05;;;1.40;;
20557;SDS011;10437;48.156;11.530;2023-07-13T13:31:43;2.67;;;1.10;;
20557;SDS011;10437;48.156;11.530;2023-07-13T13:34:11;3.42;;;1.27;;
20557;SDS011;10437;48.156;11.530;2023-07-13T13:36:40;5.20;;;1.50;;
20557;SDS011;10437;48.156;11.530;2023-07-13T13:39:15;2.10;;;1.10;;
20557;SDS011;10437;48.156;11.530;2023-07-13T13:41:46;5.25;;;1.20;;
20557;SDS011;10437;48.156;11.530;2023-07-13T13:44:15;3.75;;;1.13;;
20557;SDS011;10437;48.156;11.530;2023-07-13T13:46:43;4.50;;;1.30;;
20557;SDS011;10437;48.156;11.530;2023-07-13T13:49:12;3.28;;;1.35;;
20557;SDS011;10437;48.156;11.530;2023-07-13T13:51:42;3.58;;;1.50;;
20557;SDS011;10437;48.156;11.530;2023-07-13T13:54:10;4.40;;;1.55;;
20557;SDS011;10437;48.156;11.530;2023-07-13T13:56:39;2.50;;;1.17;;
20557;SDS011;10437;48.156;11.530;2023-07-13T13:59:06;3.83;;;1.08;;
20557;SDS011;10437;48.156;11.530;2023-07-13T14:01:35;4.45;;;1.30;;
20557;SDS011;10437;48.156;11.530;2023-07-13T14:04:02;2.55;;;1.30;;
20557;SDS011;10437;48.156;11.530;2023-07-13T14:06:30;2.55;;;1.30;;
20557;SDS011;10437;48.156;11.530;2023-07-13T14:08:57;3.13;;;1.10;;
20557;SDS011;10437;48.156;11.530;2023-07-13T14:11:25;3.25;;;1.30;;
20557;SDS011;10437;48.156;11.530;2023-07-13T14:13:53;4.43;;;1.38;;
20557;SDS011;10437;48.156;11.530;2023-07-13T14:16:23;2.03;;;0.95;;
20557;SDS011;10437;48.156;11.530;2023-07-13T14:18:55;3.97;;;1.38;;
20557;SDS011;10437;48.156;11.530;2023-07-13T14:21:25;2.65;;;1.25;;
20557;SDS011;10437;48.156;11.530;2023-07-13T14:23:53;3.42;;;1.23;;
20557;SDS011;10437;48.156;11.530;2023-07-13T14:26:21;3.40;;;1.17;;
20557;SDS011;10437;48.156;11.530;2023-07-13T14:28:50;7.07;;;1.25;;
20557;SDS011;10437;48.156;11.530;2023-07-13T14:31:18;2.22;;;1.38;;
20557;SDS011;10437;48.156;11.530;2023-07-13T14:33:46;2.42;;;1.30;;
20557;SDS011;10437;48.156;11.530;2023-07-13T14:36:19;3.97;;;1.27;;
20557;SDS011;10437;48.156;11.530;2023-07-13T14:38:53;3.22;;;1.35;;
20557;SDS011;10437;48.156;11.530;2023-07-13T14:41:19;4.55;;;1.13;;
20557;SDS011;10437;48.156;11.530;2023-07-13T14:43:47;3.08;;;1.50;;
20557;SDS011;10437;48.156;11.530;2023-07-13T14:46:18;1.92;;;1.30;;
20557;SDS011;10437;48.156;11.530;2023-07-13T14:48:53;2.75;;;1.30;;
20557;SDS011;10437;48.156;11.530;2023-07-13T14:51:27;4.68;;;1.45;;